Dades meteomassalio
Diari Summary for Marc 21, 2017 Units:  Metric    English   Both
« Previous Day
Next Day »
Diari Semanal Mensual Anual Personalitzat
  Maxima: Minima: Mijana:
Temperatura: 17.2 °C 7.5 °C 12.5 °C
Rosada: 7.8 °C 4.3 °C 6.3 °C
Humitat: 86 % 52 % 67 %
Velocitat del vent: 29.0 km/h 0.0 km/h 11.2 km/h
Racha vent: 29.0 km/h - -
Vent:- - WNW
Pressio: 1016.8 hPa 1013.1 hPa -
Pluja: 0.0 mm    
Historical Graphs
 
 
Tabular Data for Marc 21, 2017
Time Temperature Dew Point Pressure Wind Wind Speed Wind Gust Humidity Rainfall Rate (Hourly) solar Conditions
00:01 10.0 °C 6.9 °C 1014.1 hPa Calm     81 % 0.0 mm 0.0 W/m2 CLR
00:06 10.1 °C 6.9 °C 1014.1 hPa Calm     81 % 0.0 mm 0.0 W/m2 CLR
00:11 10.0 °C 6.9 °C 1014.1 hPa Calm     81 % 0.0 mm 0.0 W/m2 CLR
00:12 10.0 °C 6.9 °C 1014.1 hPa Calm     81 % 0.0 mm 0.0 W/m2 CLR
00:17 9.9 °C 6.8 °C 1014.1 hPa Calm     81 % 0.0 mm 0.0 W/m2 CLR
00:22 9.8 °C 6.8 °C 1014.1 hPa Calm     82 % 0.0 mm 0.0 W/m2 CLR
00:27 9.7 °C 6.7 °C 1014.1 hPa Calm     82 % 0.0 mm 0.0 W/m2 CLR
00:32 9.6 °C 6.9 °C 1014.1 hPa Calm     83 % 0.0 mm 0.0 W/m2 CLR
00:37 9.6 °C 6.9 °C 1014.1 hPa Calm     83 % 0.0 mm 0.0 W/m2 CLR
00:42 9.7 °C 7.0 °C 1014.1 hPa Calm     83 % 0.0 mm 0.0 W/m2 CLR
00:47 9.8 °C 6.8 °C 1014.1 hPa Calm     82 % 0.0 mm 0.0 W/m2 CLR
00:52 9.8 °C 6.8 °C 1014.1 hPa Calm     82 % 0.0 mm 0.0 W/m2 CLR
00:57 9.7 °C 6.8 °C 1014.4 hPa Calm     82 % 0.0 mm 0.0 W/m2 CLR
01:02 9.6 °C 6.6 °C 1014.4 hPa Calm     82 % 0.0 mm 0.0 W/m2 CLR
01:07 9.5 °C 6.8 °C 1014.1 hPa Calm     83 % 0.0 mm 0.0 W/m2 CLR
01:12 9.5 °C 6.8 °C 1014.1 hPa Calm     83 % 0.0 mm 0.0 W/m2 CLR
01:17 9.4 °C 6.7 °C 1014.4 hPa Calm     83 % 0.0 mm 0.0 W/m2 CLR
01:18 9.4 °C 6.7 °C 1014.4 hPa Calm     83 % 0.0 mm 0.0 W/m2 CLR
01:23 9.4 °C 6.7 °C 1014.1 hPa Calm     83 % 0.0 mm 0.0 W/m2 CLR
01:28 9.3 °C 6.6 °C 1014.4 hPa Calm     83 % 0.0 mm 0.0 W/m2 CLR
01:33 9.3 °C 6.6 °C 1014.4 hPa Calm     83 % 0.0 mm 0.0 W/m2 CLR
01:38 9.2 °C 6.4 °C 1014.4 hPa Calm     83 % 0.0 mm 0.0 W/m2 CLR
01:43 9.1 °C 6.6 °C 1014.4 hPa Calm     84 % 0.0 mm 0.0 W/m2 CLR
01:48 9.2 °C 6.7 °C 1014.4 hPa Calm     84 % 0.0 mm 0.0 W/m2 CLR
01:53 9.3 °C 6.7 °C 1014.4 hPa Calm     84 % 0.0 mm 0.0 W/m2 CLR
01:58 9.3 °C 6.7 °C 1014.4 hPa Calm     84 % 0.0 mm 0.0 W/m2 CLR
02:03 9.3 °C 6.8 °C 1014.4 hPa Calm     84 % 0.0 mm 0.0 W/m2 CLR
02:08 9.3 °C 6.8 °C 1014.4 hPa Calm     84 % 0.0 mm 0.0 W/m2 CLR
02:13 9.3 °C 6.6 °C 1014.8 hPa Calm     83 % 0.0 mm 0.0 W/m2 CLR
02:18 9.2 °C 6.6 °C 1014.8 hPa Calm     84 % 0.0 mm 0.0 W/m2 CLR
02:23 9.1 °C 6.6 °C 1014.8 hPa Calm     84 % 0.0 mm 0.0 W/m2 CLR
02:28 9.1 °C 6.7 °C 1014.8 hPa Calm     85 % 0.0 mm 0.0 W/m2 CLR
02:33 9.0 °C 6.4 °C 1014.8 hPa Calm     84 % 0.0 mm 0.0 W/m2 CLR
02:38 8.9 °C 6.4 °C 1014.8 hPa Calm     84 % 0.0 mm 0.0 W/m2 CLR
02:43 9.0 °C 6.6 °C 1014.8 hPa Calm     85 % 0.0 mm 0.0 W/m2 CLR
02:48 9.3 °C 7.1 °C 1014.8 hPa Calm     86 % 0.0 mm 0.0 W/m2 CLR
02:53 9.7 °C 7.2 °C 1014.8 hPa Calm     84 % 0.0 mm 0.0 W/m2 CLR
02:58 9.9 °C 7.2 °C 1014.8 hPa Calm     83 % 0.0 mm 0.0 W/m2 CLR
03:03 10.2 °C 7.1 °C 1014.8 hPa Calm     81 % 0.0 mm 0.0 W/m2 CLR
03:08 10.5 °C 7.0 °C 1015.1 hPa Calm     79 % 0.0 mm 0.0 W/m2 CLR
03:13 10.8 °C 6.8 °C 1015.1 hPa Calm     76 % 0.0 mm 0.0 W/m2 CLR
03:18 10.8 °C 6.5 °C 1015.1 hPa Calm     75 % 0.0 mm 0.0 W/m2 CLR
03:23 10.9 °C 6.4 °C 1015.1 hPa WSW 3.7 km/h   74 % 0.0 mm 0.0 W/m2 CLR
03:28 11.0 °C 6.3 °C 1014.8 hPa West 5.6 km/h 5.6 km/h 73 % 0.0 mm 0.0 W/m2 CLR
03:33 11.1 °C 6.2 °C 1015.1 hPa Calm     72 % 0.0 mm 0.0 W/m2 CLR
03:38 10.9 °C 6.3 °C 1014.8 hPa WSW 1.9 km/h   73 % 0.0 mm 0.0 W/m2 CLR
03:43 10.7 °C 6.3 °C 1014.8 hPa Calm     74 % 0.0 mm 0.0 W/m2 CLR
03:48 10.4 °C 6.2 °C 1014.8 hPa SW 1.9 km/h 1.9 km/h 75 % 0.0 mm 0.0 W/m2 CLR
03:53 10.3 °C 5.9 °C 1014.8 hPa WNW 16.7 km/h 16.7 km/h 74 % 0.0 mm 0.0 W/m2 CLR
03:58 10.7 °C 5.6 °C 1015.1 hPa WSW 14.8 km/h 14.8 km/h 71 % 0.0 mm 0.0 W/m2 CLR
04:03 10.8 °C 5.6 °C 1015.1 hPa WNW 12.9 km/h 12.9 km/h 70 % 0.0 mm 0.0 W/m2 CLR
04:08 10.8 °C 5.6 °C 1015.1 hPa WNW 16.7 km/h 16.7 km/h 70 % 0.0 mm 0.0 W/m2 CLR
04:13 10.7 °C 5.4 °C 1015.1 hPa WNW 9.7 km/h 9.7 km/h 70 % 0.0 mm 0.0 W/m2 CLR
04:18 10.4 °C 5.3 °C 1015.1 hPa WNW 9.3 km/h 9.3 km/h 71 % 0.0 mm 0.0 W/m2 CLR
04:23 10.3 °C 5.2 °C 1015.1 hPa West 5.6 km/h 5.6 km/h 71 % 0.0 mm 0.0 W/m2 CLR
04:28 10.3 °C 5.2 °C 1015.1 hPa West 14.5 km/h 14.5 km/h 71 % 0.0 mm 0.0 W/m2 CLR
04:33 10.3 °C 5.3 °C 1015.1 hPa WSW 7.4 km/h 7.4 km/h 71 % 0.0 mm 0.0 W/m2 CLR
04:38 10.3 °C 5.3 °C 1015.1 hPa West 13.0 km/h 13.0 km/h 71 % 0.0 mm 0.0 W/m2 CLR
04:43 10.3 °C 5.3 °C 1015.5 hPa West 20.4 km/h 20.4 km/h 71 % 0.0 mm 0.0 W/m2 CLR
04:48 10.2 °C 5.2 °C 1015.5 hPa WNW 9.3 km/h 9.3 km/h 71 % 0.0 mm 0.0 W/m2 CLR
04:53 10.1 °C 5.1 °C 1015.5 hPa West 9.3 km/h 9.3 km/h 71 % 0.0 mm 0.0 W/m2 CLR
04:58 10.0 °C 5.0 °C 1015.5 hPa West 5.6 km/h 5.6 km/h 71 % 0.0 mm 0.0 W/m2 CLR
05:03 9.8 °C 5.0 °C 1015.5 hPa West 9.7 km/h 9.7 km/h 72 % 0.0 mm 0.0 W/m2 CLR
05:08 9.8 °C 5.0 °C 1015.5 hPa West 14.8 km/h 14.8 km/h 72 % 0.0 mm 0.0 W/m2 CLR
05:13 9.8 °C 5.0 °C 1015.1 hPa West 18.5 km/h 18.5 km/h 72 % 0.0 mm 0.0 W/m2 CLR
05:18 9.7 °C 5.1 °C 1015.1 hPa WSW 16.7 km/h 16.7 km/h 73 % 0.0 mm 0.0 W/m2 CLR
05:23 9.6 °C 4.9 °C 1015.5 hPa West 13.0 km/h 13.0 km/h 73 % 0.0 mm 0.0 W/m2 CLR
05:28 9.4 °C 5.1 °C 1015.5 hPa WSW 5.6 km/h 5.6 km/h 74 % 0.0 mm 0.0 W/m2 CLR
05:33 9.3 °C 4.9 °C 1015.5 hPa WSW 1.9 km/h   74 % 0.0 mm 0.0 W/m2 CLR
05:38 9.3 °C 4.9 °C 1015.5 hPa WSW 1.6 km/h 1.6 km/h 74 % 0.0 mm 0.0 W/m2 CLR
05:43 9.1 °C 4.9 °C 1015.5 hPa Calm     75 % 0.0 mm 0.0 W/m2 CLR
05:48 8.8 °C 4.8 °C 1015.5 hPa Calm     76 % 0.0 mm 0.0 W/m2 CLR
05:53 8.7 °C 4.7 °C 1015.5 hPa Calm     76 % 0.0 mm 0.0 W/m2 CLR
05:58 8.6 °C 4.8 °C 1015.5 hPa Calm     77 % 0.0 mm 0.0 W/m2 CLR
05:59 8.6 °C 4.8 °C 1015.5 hPa Calm     77 % 0.0 mm 0.0 W/m2 CLR
06:04 8.4 °C 4.8 °C 1015.5 hPa SSW 5.6 km/h 5.6 km/h 78 % 0.0 mm 0.0 W/m2 CLR
06:09 8.4 °C 4.8 °C 1015.5 hPa SW 9.3 km/h 9.3 km/h 78 % 0.0 mm 0.0 W/m2 CLR
06:14 8.4 °C 4.8 °C 1015.5 hPa SW 11.1 km/h 11.1 km/h 78 % 0.0 mm 0.0 W/m2 CLR
06:19 8.6 °C 4.8 °C 1015.5 hPa SW 8.0 km/h 8.0 km/h 77 % 0.0 mm 0.0 W/m2 CLR
06:24 8.6 °C 4.8 °C 1015.5 hPa SW 5.6 km/h 5.6 km/h 77 % 0.0 mm 0.0 W/m2 CLR
06:29 8.4 °C 4.8 °C 1015.5 hPa SW 3.2 km/h 3.2 km/h 78 % 0.0 mm 0.0 W/m2 CLR
06:34 8.4 °C 4.8 °C 1015.5 hPa SW 7.4 km/h 7.4 km/h 78 % 0.0 mm 0.0 W/m2 CLR
06:39 8.3 °C 4.8 °C 1015.5 hPa Calm     79 % 0.0 mm 0.0 W/m2 CLR
06:44 8.1 °C 4.7 °C 1015.5 hPa SSW 5.6 km/h 5.6 km/h 79 % 0.0 mm 0.0 W/m2 CLR
06:49 8.0 °C 4.6 °C 1015.5 hPa West 5.6 km/h 5.6 km/h 79 % 0.0 mm 0.0 W/m2 CLR
06:54 8.1 °C 4.8 °C 1015.8 hPa WSW 5.6 km/h 5.6 km/h 80 % 0.0 mm 0.0 W/m2 CLR
06:59 8.1 °C 4.9 °C 1015.8 hPa Calm     80 % 0.0 mm 0.0 W/m2 CLR
07:04 8.1 °C 4.7 °C 1015.8 hPa Calm     79 % 0.0 mm 7.0 W/m2 OVC
07:09 8.0 °C 4.6 °C 1015.8 hPa Calm     79 % 0.0 mm 11.0 W/m2 BKN
07:14 7.7 °C 4.3 °C 1015.8 hPa Calm     79 % 0.0 mm 16.0 W/m2 BKN
07:19 7.5 °C 4.4 °C 1015.8 hPa Calm     81 % 0.0 mm 19.0 W/m2 BKN
07:24 7.6 °C 4.7 °C 1015.8 hPa Calm     82 % 0.0 mm 25.0 W/m2 BKN
07:29 7.7 °C 4.8 °C 1015.8 hPa Calm     82 % 0.0 mm 30.0 W/m2 BKN
07:34 7.7 °C 4.7 °C 1015.8 hPa Calm     81 % 0.0 mm 33.0 W/m2 BKN
07:39 7.9 °C 4.9 °C 1015.8 hPa Calm     81 % 0.0 mm 40.0 W/m2 BKN
07:44 8.2 °C 5.1 °C 1015.8 hPa Calm     81 % 0.0 mm 62.0 W/m2 SCT
07:49 8.4 °C 5.1 °C 1015.8 hPa Calm     80 % 0.0 mm 74.0 W/m2 FEW
07:54 8.4 °C 5.2 °C 1015.8 hPa Calm     80 % 0.0 mm 77.0 W/m2 FEW
07:59 8.6 °C 5.3 °C 1015.8 hPa Calm     80 % 0.0 mm 97.0 W/m2 CLR
08:04 8.8 °C 5.5 °C 1015.8 hPa Calm     80 % 0.0 mm 93.0 W/m2 CLR
08:09 9.0 °C 5.6 °C 1015.8 hPa Calm     79 % 0.0 mm 102.0 W/m2 CLR
08:14 9.2 °C 5.7 °C 1016.1 hPa Calm     79 % 0.0 mm 125.0 W/m2 CLR
08:19 9.3 °C 5.7 °C 1015.8 hPa Calm     78 % 0.0 mm 142.0 W/m2 CLR
08:24 9.4 °C 5.6 °C 1016.1 hPa Calm     77 % 0.0 mm 162.0 W/m2 CLR
08:29 9.6 °C 5.9 °C 1016.1 hPa Calm     78 % 0.0 mm 165.0 W/m2 CLR
08:34 9.9 °C 6.2 °C 1016.1 hPa Calm     78 % 0.0 mm 206.0 W/m2 CLR
08:39 10.2 °C 5.9 °C 1016.1 hPa WSW 5.6 km/h 5.6 km/h 75 % 0.0 mm 229.0 W/m2 CLR
08:44 10.4 °C 5.8 °C 1016.1 hPa WNW 16.7 km/h 16.7 km/h 73 % 0.0 mm 241.0 W/m2 CLR
08:49 10.6 °C 5.5 °C 1016.1 hPa West 14.8 km/h 14.8 km/h 71 % 0.0 mm 265.0 W/m2 CLR
08:54 10.8 °C 5.7 °C 1016.1 hPa West 12.9 km/h 12.9 km/h 71 % 0.0 mm 294.0 W/m2 CLR
08:59 10.9 °C 5.5 °C 1016.1 hPa WNW 18.5 km/h 18.5 km/h 69 % 0.0 mm 279.0 W/m2 CLR
09:04 11.0 °C 5.5 °C 1016.1 hPa NW 13.0 km/h 13.0 km/h 69 % 0.0 mm 327.0 W/m2 CLR
09:09 11.1 °C 5.8 °C 1016.1 hPa West 19.3 km/h 19.3 km/h 70 % 0.0 mm 302.0 W/m2 CLR
09:14 11.2 °C 5.7 °C 1016.1 hPa WNW 22.2 km/h 22.2 km/h 69 % 0.0 mm 315.0 W/m2 CLR
09:19 11.2 °C 5.7 °C 1016.1 hPa West 14.8 km/h 14.8 km/h 69 % 0.0 mm 301.0 W/m2 CLR
09:24 11.2 °C 5.7 °C 1016.1 hPa NW 18.5 km/h 18.5 km/h 69 % 0.0 mm 362.0 W/m2 CLR
09:29 11.4 °C 5.9 °C 1016.1 hPa WNW 11.1 km/h 14.6 km/h 69 % 0.0 mm 350.0 W/m2 CLR
09:34 11.5 °C 6.0 °C 1016.1 hPa NNW 13.0 km/h 13.0 km/h 69 % 0.0 mm 439.0 W/m2 CLR
09:39 11.6 °C 5.7 °C 1016.1 hPa NW 24.1 km/h 24.1 km/h 67 % 0.0 mm 452.0 W/m2 CLR
09:44 11.7 °C 5.9 °C 1016.1 hPa NW 22.2 km/h 22.2 km/h 68 % 0.0 mm 439.0 W/m2 CLR
09:49 11.8 °C 6.1 °C 1016.1 hPa WNW 18.5 km/h 18.5 km/h 68 % 0.0 mm 469.0 W/m2 CLR
09:54 11.9 °C 5.9 °C 1016.1 hPa WNW 18.5 km/h 18.5 km/h 67 % 0.0 mm 392.0 W/m2 CLR
09:59 11.9 °C 5.9 °C 1016.1 hPa WNW 11.1 km/h 14.0 km/h 67 % 0.0 mm 404.0 W/m2 CLR
10:04 12.0 °C 5.8 °C 1016.1 hPa NW 19.3 km/h 19.3 km/h 66 % 0.0 mm 510.0 W/m2 CLR
10:09 12.3 °C 6.3 °C 1016.1 hPa NW 9.3 km/h 9.3 km/h 67 % 0.0 mm 424.0 W/m2 CLR
10:14 12.4 °C 6.2 °C 1016.1 hPa NW 19.3 km/h 19.3 km/h 66 % 0.0 mm 413.0 W/m2 CLR
10:19 12.4 °C 6.5 °C 1016.1 hPa WNW 8.0 km/h 8.0 km/h 67 % 0.0 mm 494.0 W/m2 CLR
10:24 12.6 °C 6.7 °C 1016.1 hPa WNW 18.5 km/h 18.5 km/h 67 % 0.0 mm 582.0 W/m2 CLR
10:25 12.7 °C 6.7 °C 1016.1 hPa WNW 18.5 km/h 18.5 km/h 67 % 0.0 mm 582.0 W/m2 CLR
10:30 12.7 °C 6.1 °C 1016.1 hPa NNW 8.0 km/h 8.0 km/h 64 % 0.0 mm 531.0 W/m2 CLR
10:35 12.9 °C 6.4 °C 1016.1 hPa NW 16.7 km/h 16.7 km/h 65 % 0.0 mm 499.0 W/m2 CLR
10:40 12.9 °C 6.5 °C 1016.1 hPa NW 7.4 km/h 7.9 km/h 65 % 0.0 mm 555.0 W/m2 CLR
10:45 13.1 °C 6.7 °C 1016.1 hPa WNW 18.5 km/h 18.5 km/h 65 % 0.0 mm 652.0 W/m2 CLR
10:50 13.2 °C 6.6 °C 1016.1 hPa WNW 14.8 km/h 14.8 km/h 64 % 0.0 mm 657.0 W/m2 CLR
10:55 13.3 °C 6.9 °C 1015.8 hPa WNW 18.5 km/h 18.5 km/h 65 % 0.0 mm 529.0 W/m2 CLR
11:00 13.5 °C 7.1 °C 1016.1 hPa NNW 20.4 km/h 20.4 km/h 65 % 0.0 mm 512.0 W/m2 CLR
11:05 13.3 °C 6.4 °C 1016.1 hPa WNW 18.5 km/h 18.5 km/h 63 % 0.0 mm 459.0 W/m2 CLR
11:10 13.2 °C 6.6 °C 1016.1 hPa NW 14.8 km/h 14.8 km/h 64 % 0.0 mm 483.0 W/m2 CLR
11:15 13.3 °C 6.7 °C 1016.1 hPa WNW 5.6 km/h 6.6 km/h 64 % 0.0 mm 455.0 W/m2 CLR
11:20 13.6 °C 6.9 °C 1015.8 hPa WNW 11.1 km/h 11.1 km/h 64 % 0.0 mm 541.0 W/m2 CLR
11:25 13.7 °C 7.1 °C 1015.8 hPa NNW 13.0 km/h 13.0 km/h 64 % 0.0 mm 501.0 W/m2 CLR
11:30 13.8 °C 6.8 °C 1015.8 hPa West 14.8 km/h 14.8 km/h 63 % 0.0 mm 413.0 W/m2 CLR
11:35 13.7 °C 6.5 °C 1015.8 hPa NW 7.4 km/h 7.4 km/h 62 % 0.0 mm 408.0 W/m2 CLR
11:40 13.8 °C 7.1 °C 1015.8 hPa WNW 9.3 km/h 9.3 km/h 64 % 0.0 mm 471.0 W/m2 CLR
11:45 13.9 °C 6.9 °C 1015.8 hPa NNW 24.1 km/h 24.1 km/h 63 % 0.0 mm 455.0 W/m2 CLR
11:50 13.8 °C 6.9 °C 1015.8 hPa NNW 18.5 km/h 18.5 km/h 63 % 0.0 mm 550.0 W/m2 CLR
11:55 13.9 °C 6.8 °C 1015.8 hPa NNW 20.4 km/h 20.4 km/h 62 % 0.0 mm 471.0 W/m2 CLR
12:00 13.8 °C 6.7 °C 1015.8 hPa WNW 20.4 km/h 20.4 km/h 62 % 0.0 mm 367.0 W/m2 CLR
12:05 13.8 °C 6.9 °C 1015.8 hPa NW 19.3 km/h 19.3 km/h 63 % 0.0 mm 606.0 W/m2 CLR
12:10 14.1 °C 7.2 °C 1015.8 hPa NNW 18.5 km/h 18.5 km/h 63 % 0.0 mm 677.0 W/m2 CLR
12:15 14.4 °C 7.2 °C 1015.8 hPa NW 8.0 km/h 8.0 km/h 62 % 0.0 mm 717.0 W/m2 CLR
12:20 14.7 °C 7.3 °C 1015.5 hPa NW 22.2 km/h 22.2 km/h 61 % 0.0 mm 701.0 W/m2 CLR
12:25 14.8 °C 7.3 °C 1015.8 hPa NW 18.5 km/h 18.5 km/h 61 % 0.0 mm 694.0 W/m2 CLR
12:30 14.9 °C 7.4 °C 1015.5 hPa WNW 18.5 km/h 18.5 km/h 61 % 0.0 mm 705.0 W/m2 CLR
12:35 15.1 °C 7.2 °C 1015.5 hPa NNW 16.1 km/h 16.1 km/h 59 % 0.0 mm 770.0 W/m2 CLR
12:40 15.2 °C 7.3 °C 1015.5 hPa NNW 18.5 km/h 19.1 km/h 59 % 0.0 mm 701.0 W/m2 CLR
12:45 15.2 °C 7.2 °C 1015.5 hPa NNW 20.4 km/h 20.4 km/h 59 % 0.0 mm 631.0 W/m2 CLR
12:50 15.2 °C 7.2 °C 1015.1 hPa NNW 14.8 km/h 14.8 km/h 59 % 0.0 mm 606.0 W/m2 CLR
12:55 15.1 °C 7.2 °C 1015.1 hPa NNW 5.6 km/h 5.6 km/h 59 % 0.0 mm 552.0 W/m2 CLR
13:00 15.2 °C 6.9 °C 1015.1 hPa North 14.5 km/h 14.5 km/h 58 % 0.0 mm 803.0 W/m2 CLR
13:05 15.2 °C 7.0 °C 1015.1 hPa WNW 16.7 km/h 16.7 km/h 58 % 0.0 mm 464.0 W/m2 CLR
13:10 15.1 °C 6.9 °C 1015.1 hPa NW 12.9 km/h 12.9 km/h 58 % 0.0 mm 480.0 W/m2 CLR
13:15 15.1 °C 6.8 °C 1015.1 hPa NW 14.8 km/h 14.8 km/h 58 % 0.0 mm 445.0 W/m2 CLR
13:20 15.2 °C 7.4 °C 1015.1 hPa North 16.7 km/h 16.7 km/h 60 % 0.0 mm 684.0 W/m2 CLR
13:25 15.2 °C 6.8 °C 1015.1 hPa North 24.1 km/h 24.1 km/h 57 % 0.0 mm 782.0 W/m2 CLR
13:30 15.6 °C 7.6 °C 1015.1 hPa North 18.5 km/h 18.5 km/h 59 % 0.0 mm 803.0 W/m2 CLR
13:35 15.8 °C 7.3 °C 1015.1 hPa NNW 22.5 km/h 22.5 km/h 57 % 0.0 mm 675.0 W/m2 CLR
13:40 15.7 °C 7.4 °C 1014.8 hPa WNW 14.8 km/h 14.8 km/h 58 % 0.0 mm 738.0 W/m2 CLR
13:45 15.8 °C 7.6 °C 1014.8 hPa NW 1.9 km/h 1.9 km/h 58 % 0.0 mm 729.0 W/m2 CLR
13:50 16.2 °C 7.4 °C 1014.8 hPa NW 24.1 km/h 24.1 km/h 56 % 0.0 mm 754.0 W/m2 CLR
13:55 16.1 °C 7.0 °C 1014.8 hPa NW 24.1 km/h 24.1 km/h 55 % 0.0 mm 687.0 W/m2 CLR
14:00 16.0 °C 7.2 °C 1014.4 hPa West 18.5 km/h 18.5 km/h 56 % 0.0 mm 540.0 W/m2 CLR
14:05 16.2 °C 7.7 °C 1014.4 hPa NNW 18.5 km/h 18.5 km/h 57 % 0.0 mm 666.0 W/m2 CLR
14:10 16.4 °C 7.6 °C 1014.4 hPa NNW 18.5 km/h 18.5 km/h 56 % 0.0 mm 749.0 W/m2 CLR
14:15 16.6 °C 7.2 °C 1014.4 hPa NW 20.4 km/h 20.4 km/h 54 % 0.0 mm 740.0 W/m2 CLR
14:20 16.8 °C 7.4 °C 1014.4 hPa NNW 18.5 km/h 18.5 km/h 54 % 0.0 mm 642.0 W/m2 CLR
14:25 16.7 °C 7.3 °C 1014.4 hPa NW 24.1 km/h 24.1 km/h 54 % 0.0 mm 673.0 W/m2 CLR
14:30 16.7 °C 7.3 °C 1014.1 hPa North 16.7 km/h 16.7 km/h 54 % 0.0 mm 649.0 W/m2 CLR
14:35 16.9 °C 7.8 °C 1014.1 hPa NW 5.6 km/h 5.6 km/h 55 % 0.0 mm 698.0 W/m2 CLR
14:40 17.1 °C 7.4 °C 1014.1 hPa NNW 22.2 km/h 22.2 km/h 53 % 0.0 mm 717.0 W/m2 CLR
14:45 17.0 °C 7.1 °C 1014.1 hPa NW 25.9 km/h 25.9 km/h 52 % 0.0 mm 601.0 W/m2 CLR
14:50 16.9 °C 7.6 °C 1014.1 hPa NW 27.4 km/h 27.4 km/h 54 % 0.0 mm 635.0 W/m2 CLR
14:55 17.0 °C 7.1 °C 1014.1 hPa NW 25.9 km/h 25.9 km/h 52 % 0.0 mm 636.0 W/m2 CLR
15:00 16.9 °C 7.0 °C 1014.1 hPa North 24.1 km/h 24.1 km/h 52 % 0.0 mm 383.0 W/m2 CLR
15:05 16.9 °C 7.3 °C 1014.1 hPa NNW 20.4 km/h 20.4 km/h 53 % 0.0 mm 547.0 W/m2 CLR
15:10 17.2 °C 7.6 °C 1013.8 hPa WNW 18.5 km/h 18.5 km/h 53 % 0.0 mm 603.0 W/m2 CLR
15:15 17.2 °C 7.2 °C 1013.8 hPa NNW 20.4 km/h 20.4 km/h 52 % 0.0 mm 410.0 W/m2 CLR
15:20 16.7 °C 6.8 °C 1014.1 hPa NNW 29.0 km/h 29.0 km/h 52 % 0.0 mm 403.0 W/m2 CLR
15:25 16.6 °C 7.3 °C 1014.1 hPa NNW 16.7 km/h 16.7 km/h 54 % 0.0 mm 408.0 W/m2 CLR
15:30 16.6 °C 6.9 °C 1014.1 hPa NNW 25.9 km/h 25.9 km/h 53 % 0.0 mm 396.0 W/m2 CLR
15:35 16.6 °C 6.9 °C 1013.8 hPa NW 22.2 km/h 22.2 km/h 53 % 0.0 mm 475.0 W/m2 CLR
15:36 16.6 °C 7.2 °C 1013.8 hPa NNW 22.2 km/h 22.2 km/h 54 % 0.0 mm 475.0 W/m2 CLR
15:41 16.8 °C 7.4 °C 1013.8 hPa North 5.6 km/h 5.6 km/h 54 % 0.0 mm 589.0 W/m2 CLR
15:46 17.1 °C 7.4 °C 1013.8 hPa NNW 18.5 km/h 18.5 km/h 53 % 0.0 mm 503.0 W/m2 CLR
15:51 16.9 °C 7.0 °C 1013.8 hPa North 14.8 km/h 14.8 km/h 52 % 0.0 mm 492.0 W/m2 CLR
15:56 16.9 °C 7.0 °C 1013.8 hPa NNW 22.2 km/h 22.2 km/h 52 % 0.0 mm 475.0 W/m2 CLR
16:01 17.2 °C 7.5 °C 1013.8 hPa NW 18.5 km/h 18.5 km/h 53 % 0.0 mm 494.0 W/m2 CLR
16:06 17.1 °C 7.4 °C 1013.8 hPa NNW 24.1 km/h 24.1 km/h 53 % 0.0 mm 387.0 W/m2 CLR
16:11 16.8 °C 7.2 °C 1013.8 hPa NW 13.0 km/h 13.0 km/h 53 % 0.0 mm 336.0 W/m2 CLR
16:16 16.6 °C 7.3 °C 1013.8 hPa NW 18.5 km/h 18.5 km/h 54 % 0.0 mm 401.0 W/m2 CLR
16:21 16.7 °C 7.3 °C 1013.8 hPa NNW 25.9 km/h 25.9 km/h 54 % 0.0 mm 441.0 W/m2 CLR
16:26 16.6 °C 7.3 °C 1013.8 hPa NW 18.5 km/h 18.5 km/h 54 % 0.0 mm 315.0 W/m2 CLR
16:31 16.5 °C 7.2 °C 1013.8 hPa NW 18.5 km/h 18.5 km/h 54 % 0.0 mm 255.0 W/m2 CLR
16:36 16.3 °C 6.9 °C 1013.8 hPa Calm     54 % 0.0 mm 229.0 W/m2 CLR
16:41 16.3 °C 7.0 °C 1013.8 hPa West 5.6 km/h 5.6 km/h 54 % 0.0 mm 241.0 W/m2 CLR
16:46 16.6 °C 7.3 °C 1013.4 hPa WNW 18.5 km/h 18.5 km/h 54 % 0.0 mm 497.0 W/m2 CLR
16:51 17.0 °C 7.3 °C 1013.4 hPa NNW 5.6 km/h 5.6 km/h 53 % 0.0 mm 441.0 W/m2 CLR
16:56 17.2 °C 7.2 °C 1013.4 hPa North 18.5 km/h 18.5 km/h 52 % 0.0 mm 369.0 W/m2 CLR
17:01 17.1 °C 7.4 °C 1013.4 hPa WNW 16.7 km/h 16.7 km/h 53 % 0.0 mm 411.0 W/m2 CLR
17:06 17.1 °C 7.1 °C 1013.4 hPa NNW 22.2 km/h 22.2 km/h 52 % 0.0 mm 313.0 W/m2 CLR
17:11 16.9 °C 7.6 °C 1013.4 hPa NW 18.5 km/h 18.5 km/h 54 % 0.0 mm 339.0 W/m2 CLR
17:16 16.9 °C 7.0 °C 1013.4 hPa NW 25.9 km/h 25.9 km/h 52 % 0.0 mm 218.0 W/m2 CLR
17:21 16.6 °C 7.0 °C 1013.4 hPa WNW 9.3 km/h 9.3 km/h 53 % 0.0 mm 190.0 W/m2 CLR
17:26 16.5 °C 6.9 °C 1013.4 hPa NNW 22.2 km/h 22.2 km/h 53 % 0.0 mm 183.0 W/m2 CLR
17:31 16.5 °C 7.4 °C 1013.4 hPa WNW 18.5 km/h 18.5 km/h 55 % 0.0 mm 329.0 W/m2 CLR
17:36 16.7 °C 7.1 °C 1013.4 hPa NW 22.2 km/h 22.2 km/h 53 % 0.0 mm 336.0 W/m2 CLR
17:41 16.7 °C 7.1 °C 1013.1 hPa NW 14.8 km/h 14.8 km/h 53 % 0.0 mm 301.0 W/m2 CLR
17:46 16.9 °C 6.9 °C 1013.1 hPa North 18.5 km/h 18.5 km/h 52 % 0.0 mm 258.0 W/m2 CLR
17:51 16.7 °C 6.8 °C 1013.1 hPa NNW 3.7 km/h 3.7 km/h 52 % 0.0 mm 232.0 W/m2 CLR
17:56 16.8 °C 6.8 °C 1013.1 hPa NNW 16.7 km/h 16.7 km/h 52 % 0.0 mm 200.0 W/m2 CLR
18:01 16.7 °C 6.8 °C 1013.1 hPa NNW 16.7 km/h 16.7 km/h 52 % 0.0 mm 98.0 W/m2 CLR
18:06 16.4 °C 6.8 °C 1013.1 hPa NW 14.8 km/h 14.8 km/h 53 % 0.0 mm 42.0 W/m2 FEW
18:11 16.1 °C 6.8 °C 1013.1 hPa North 13.0 km/h 13.0 km/h 54 % 0.0 mm 49.0 W/m2 SCT
18:16 16.0 °C 6.9 °C 1013.1 hPa North 1.9 km/h 1.9 km/h 55 % 0.0 mm 123.0 W/m2 CLR
18:21 16.2 °C 7.1 °C 1013.1 hPa Calm     55 % 0.0 mm 105.0 W/m2 CLR
18:26 16.2 °C 7.2 °C 1013.4 hPa NNW 5.6 km/h 5.6 km/h 55 % 0.0 mm 109.0 W/m2 CLR
18:31 16.3 °C 7.2 °C 1013.4 hPa Calm     55 % 0.0 mm 100.0 W/m2 CLR
18:36 16.2 °C 7.2 °C 1013.4 hPa NNW 16.7 km/h 16.7 km/h 55 % 0.0 mm 97.0 W/m2 CLR
18:41 16.0 °C 6.9 °C 1013.4 hPa NW 11.3 km/h 11.3 km/h 55 % 0.0 mm 77.0 W/m2 FEW
18:46 15.8 °C 7.1 °C 1013.8 hPa Calm     56 % 0.0 mm 51.0 W/m2 SCT
18:51 15.6 °C 7.1 °C 1014.1 hPa NW 5.6 km/h 5.6 km/h 57 % 0.0 mm 35.0 W/m2 BKN
18:56 15.4 °C 7.2 °C 1014.1 hPa NW 3.2 km/h 3.2 km/h 58 % 0.0 mm 26.0 W/m2 BKN
18:58 15.4 °C 7.2 °C 1014.1 hPa NW 5.6 km/h 5.6 km/h 58 % 0.0 mm 26.0 W/m2 BKN
19:03 15.2 °C 7.3 °C 1014.1 hPa North 11.1 km/h 11.1 km/h 59 % 0.0 mm 21.0 W/m2 BKN
19:08 15.1 °C 7.1 °C 1014.4 hPa North 18.5 km/h 18.5 km/h 59 % 0.0 mm 11.0 W/m2 BKN
19:13 14.9 °C 7.2 °C 1014.4 hPa North 13.0 km/h 13.0 km/h 60 % 0.0 mm 5.0 W/m2 OVC
19:18 14.8 °C 7.1 °C 1014.8 hPa NNW 16.7 km/h 16.7 km/h 60 % 0.0 mm 0.0 W/m2 OVC
19:23 14.7 °C 7.2 °C 1014.8 hPa NW 18.5 km/h 18.5 km/h 61 % 0.0 mm 0.0 W/m2 CLR
19:28 14.7 °C 7.2 °C 1015.1 hPa NNW 16.7 km/h 16.7 km/h 61 % 0.0 mm 0.0 W/m2 CLR
19:33 14.6 °C 6.9 °C 1015.1 hPa NNW 16.7 km/h 16.7 km/h 60 % 0.0 mm 0.0 W/m2 CLR
19:38 14.6 °C 6.9 °C 1015.1 hPa NNW 11.1 km/h 11.1 km/h 60 % 0.0 mm 0.0 W/m2 CLR
19:43 14.4 °C 6.5 °C 1015.1 hPa NNW 13.0 km/h 13.0 km/h 59 % 0.0 mm 0.0 W/m2 CLR
19:48 14.3 °C 6.7 °C 1015.1 hPa NW 14.8 km/h 14.8 km/h 60 % 0.0 mm 0.0 W/m2 CLR
19:53 14.3 °C 6.6 °C 1015.1 hPa NW 18.5 km/h 18.5 km/h 60 % 0.0 mm 0.0 W/m2 CLR
19:58 14.2 °C 6.6 °C 1015.1 hPa NNW 11.1 km/h 11.1 km/h 60 % 0.0 mm 0.0 W/m2 CLR
20:03 14.2 °C 6.7 °C 1015.5 hPa WNW 14.8 km/h 14.8 km/h 61 % 0.0 mm 0.0 W/m2 CLR
20:08 14.1 °C 6.9 °C 1015.5 hPa NW 12.9 km/h 12.9 km/h 62 % 0.0 mm 0.0 W/m2 CLR
20:13 14.0 °C 6.8 °C 1015.5 hPa WNW 14.8 km/h 14.8 km/h 62 % 0.0 mm 0.0 W/m2 CLR
20:18 13.9 °C 6.7 °C 1015.5 hPa Calm     62 % 0.0 mm 0.0 W/m2 CLR
20:23 13.8 °C 6.8 °C 1015.8 hPa NNW 22.2 km/h 22.2 km/h 63 % 0.0 mm 0.0 W/m2 CLR
20:28 13.7 °C 6.7 °C 1015.5 hPa West 14.8 km/h 14.8 km/h 63 % 0.0 mm 0.0 W/m2 CLR
20:33 13.6 °C 6.7 °C 1015.8 hPa NW 14.5 km/h 14.5 km/h 63 % 0.0 mm 0.0 W/m2 CLR
20:38 13.4 °C 6.6 °C 1015.8 hPa WNW 20.9 km/h 20.9 km/h 63 % 0.0 mm 0.0 W/m2 CLR
20:43 13.4 °C 6.5 °C 1015.8 hPa West 18.5 km/h 18.5 km/h 63 % 0.0 mm 0.0 W/m2 CLR
20:48 13.4 °C 6.3 °C 1015.8 hPa West 18.5 km/h 18.5 km/h 62 % 0.0 mm 0.0 W/m2 CLR
20:53 13.3 °C 6.2 °C 1015.8 hPa WNW 20.9 km/h 20.9 km/h 62 % 0.0 mm 0.0 W/m2 CLR
20:58 13.2 °C 6.1 °C 1015.8 hPa WNW 18.5 km/h 18.5 km/h 62 % 0.0 mm 0.0 W/m2 CLR
21:03 13.1 °C 6.2 °C 1015.8 hPa WNW 14.8 km/h 14.8 km/h 63 % 0.0 mm 0.0 W/m2 CLR
21:08 13.0 °C 5.9 °C 1015.8 hPa WNW 20.4 km/h 20.4 km/h 62 % 0.0 mm 0.0 W/m2 CLR
21:13 13.1 °C 5.9 °C 1015.8 hPa West 14.8 km/h 14.8 km/h 62 % 0.0 mm 0.0 W/m2 CLR
21:18 12.9 °C 6.1 °C 1015.8 hPa West 14.8 km/h 14.8 km/h 63 % 0.0 mm 0.0 W/m2 CLR
21:23 12.8 °C 5.9 °C 1015.8 hPa WSW 16.7 km/h 16.7 km/h 63 % 0.0 mm 0.0 W/m2 CLR
21:28 12.8 °C 5.9 °C 1015.8 hPa West 16.7 km/h 16.7 km/h 63 % 0.0 mm 0.0 W/m2 CLR
21:33 12.7 °C 6.1 °C 1015.8 hPa West 9.3 km/h 9.3 km/h 64 % 0.0 mm 0.0 W/m2 CLR
21:38 12.6 °C 5.9 °C 1015.8 hPa Calm     64 % 0.0 mm 0.0 W/m2 CLR
21:43 12.4 °C 6.1 °C 1016.1 hPa West 11.1 km/h 11.1 km/h 65 % 0.0 mm 0.0 W/m2 CLR
21:48 12.3 °C 5.9 °C 1016.1 hPa West 5.6 km/h 5.6 km/h 65 % 0.0 mm 0.0 W/m2 CLR
21:53 12.2 °C 6.0 °C 1016.1 hPa West 18.5 km/h 18.5 km/h 66 % 0.0 mm 0.0 W/m2 CLR
21:58 12.1 °C 5.9 °C 1016.1 hPa WNW 18.5 km/h 18.5 km/h 66 % 0.0 mm 0.0 W/m2 CLR
22:03 12.1 °C 5.9 °C 1016.5 hPa WNW 18.5 km/h 18.5 km/h 66 % 0.0 mm 0.0 W/m2 CLR
22:08 12.1 °C 5.9 °C 1016.5 hPa West 16.1 km/h 16.1 km/h 66 % 0.0 mm 0.0 W/m2 CLR
22:13 12.0 °C 5.8 °C 1016.5 hPa West 17.7 km/h 17.7 km/h 66 % 0.0 mm 0.0 W/m2 CLR
22:18 12.0 °C 5.8 °C 1016.5 hPa West 14.8 km/h 14.8 km/h 66 % 0.0 mm 0.0 W/m2 CLR
22:23 12.0 °C 5.8 °C 1016.5 hPa West 20.4 km/h 20.4 km/h 66 % 0.0 mm 0.0 W/m2 CLR
22:28 11.9 °C 5.8 °C 1016.5 hPa WNW 16.7 km/h 16.7 km/h 66 % 0.0 mm 0.0 W/m2 CLR
22:33 11.9 °C 5.6 °C 1016.8 hPa West 16.7 km/h 16.7 km/h 65 % 0.0 mm 0.0 W/m2 CLR
22:38 11.9 °C 5.5 °C 1016.8 hPa WNW 5.6 km/h 5.6 km/h 65 % 0.0 mm 0.0 W/m2 CLR
22:43 11.8 °C 5.4 °C 1016.8 hPa West 5.6 km/h 5.6 km/h 65 % 0.0 mm 0.0 W/m2 CLR
22:48 11.7 °C 5.5 °C 1016.8 hPa WNW 14.8 km/h 14.8 km/h 66 % 0.0 mm 0.0 W/m2 CLR
22:53 11.6 °C 5.4 °C 1016.8 hPa WNW 17.7 km/h 17.7 km/h 66 % 0.0 mm 0.0 W/m2 CLR
22:58 11.6 °C 5.4 °C 1016.8 hPa WNW 24.1 km/h 24.1 km/h 66 % 0.0 mm 0.0 W/m2 CLR
23:03 11.5 °C 5.4 °C 1016.8 hPa West 16.7 km/h 16.7 km/h 66 % 0.0 mm 0.0 W/m2 CLR
23:08 11.4 °C 5.3 °C 1016.8 hPa WNW 16.7 km/h 16.7 km/h 66 % 0.0 mm 0.0 W/m2 CLR
23:13 11.3 °C 5.2 °C 1016.8 hPa WNW 14.8 km/h 14.8 km/h 66 % 0.0 mm 0.0 W/m2 CLR
23:18 11.3 °C 5.4 °C 1016.8 hPa WSW 16.7 km/h 16.7 km/h 67 % 0.0 mm 0.0 W/m2 CLR
23:23 11.2 °C 5.3 °C 1016.8 hPa West 18.5 km/h 18.5 km/h 67 % 0.0 mm 0.0 W/m2 CLR
23:28 11.2 °C 5.3 °C 1016.8 hPa WNW 20.4 km/h 20.4 km/h 67 % 0.0 mm 0.0 W/m2 CLR
23:33 11.2 °C 5.3 °C 1016.8 hPa WNW 22.2 km/h 22.2 km/h 67 % 0.0 mm 0.0 W/m2 CLR
23:38 11.1 °C 5.2 °C 1016.8 hPa West 13.0 km/h 13.0 km/h 67 % 0.0 mm 0.0 W/m2 CLR
23:43 11.1 °C 5.2 °C 1016.8 hPa West 18.5 km/h 18.5 km/h 67 % 0.0 mm 0.0 W/m2 CLR
23:48 11.1 °C 4.9 °C 1016.8 hPa West 24.1 km/h 24.1 km/h 66 % 0.0 mm 0.0 W/m2 CLR
23:53 11.1 °C 4.9 °C 1016.8 hPa WSW 18.5 km/h 18.5 km/h 66 % 0.0 mm 0.0 W/m2 CLR
23:58 10.9 °C 4.8 °C 1016.8 hPa West 18.5 km/h 18.5 km/h 66 % 0.0 mm 0.0 W/m2 CLR
Lo Temps de Massalio
Compliments of Weather Underground - 1.25 mb